createdAt,value
2022-09-23T00:01:39.232Z,9.70
2022-09-23T00:04:30.052Z,9.60
2022-09-23T00:07:17.974Z,9.60
2022-09-23T00:10:07.006Z,9.50
2022-09-23T00:12:55.903Z,9.50
2022-09-23T00:15:44.094Z,9.40
2022-09-23T00:18:32.182Z,9.40
2022-09-23T00:21:21.777Z,9.30
2022-09-23T00:24:09.619Z,9.20
2022-09-23T00:26:57.415Z,9.10
2022-09-23T00:29:45.577Z,9.10
2022-09-23T00:32:33.411Z,9.10
2022-09-23T00:35:21.252Z,9.10
2022-09-23T00:38:10.428Z,9.10
2022-09-23T00:40:58.817Z,9.10
2022-09-23T00:43:48.131Z,9.10
2022-09-23T00:46:37.186Z,9.00
2022-09-23T00:49:28.385Z,9.00
2022-09-23T00:52:17.966Z,9.00
2022-09-23T00:55:09.884Z,8.90
2022-09-23T00:57:59.332Z,8.90
2022-09-23T01:00:47.341Z,8.90
2022-09-23T01:03:35.171Z,8.90
2022-09-23T01:06:23.020Z,8.90
2022-09-23T01:09:10.950Z,8.80
2022-09-23T01:12:03.379Z,8.90
2022-09-23T01:14:53.936Z,8.90
2022-09-23T01:17:47.561Z,8.90
2022-09-23T01:20:44.849Z,8.90
2022-09-23T01:23:45.306Z,8.90
2022-09-23T01:26:48.468Z,8.80
2022-09-23T01:29:59.947Z,8.70
2022-09-23T01:33:04.775Z,8.70
2022-09-23T01:36:03.831Z,8.70
2022-09-23T01:38:54.902Z,8.60
2022-09-23T01:41:49.361Z,8.60
2022-09-23T01:44:40.519Z,8.60
2022-09-23T01:47:31.600Z,8.50
2022-09-23T01:50:40.029Z,8.50
2022-09-23T01:53:33.049Z,8.50
2022-09-23T01:56:26.574Z,8.50
2022-09-23T01:59:16.376Z,8.50
2022-09-23T02:02:05.670Z,8.50
2022-09-23T02:04:58.433Z,8.40
2022-09-23T02:07:50.298Z,8.40
2022-09-23T02:10:42.156Z,8.40
2022-09-23T02:13:32.593Z,8.30
2022-09-23T02:16:24.829Z,8.30
2022-09-23T02:19:14.526Z,8.20
2022-09-23T02:22:04.091Z,8.20
2022-09-23T02:24:54.720Z,8.20
2022-09-23T02:27:47.571Z,8.10
2022-09-23T02:30:39.666Z,8.10
2022-09-23T02:33:34.734Z,8.10
2022-09-23T02:36:27.018Z,8.20
2022-09-23T02:39:15.175Z,8.30
2022-09-23T02:42:07.757Z,8.20
2022-09-23T02:44:56.031Z,8.20
2022-09-23T02:47:45.953Z,8.10
2022-09-23T02:50:34.476Z,8.10
2022-09-23T02:53:23.939Z,8.10
2022-09-23T02:56:16.152Z,8.10
2022-09-23T02:59:06.210Z,8.10
2022-09-23T03:02:01.235Z,8.10
2022-09-23T03:04:57.058Z,8.00
2022-09-23T03:07:49.459Z,8.00
2022-09-23T03:10:42.031Z,7.90
2022-09-23T03:13:32.411Z,7.90
2022-09-23T03:16:26.400Z,8.00
2022-09-23T03:19:19.303Z,7.90
2022-09-23T03:22:11.199Z,8.00
2022-09-23T03:25:02.081Z,8.00
2022-09-23T03:27:50.350Z,8.00
2022-09-23T03:30:38.678Z,8.00
2022-09-23T03:33:29.076Z,8.00
2022-09-23T03:36:36.541Z,7.90
2022-09-23T03:39:29.233Z,8.00
2022-09-23T03:42:18.905Z,7.90
2022-09-23T03:45:09.012Z,7.80
2022-09-23T03:47:56.998Z,7.70
2022-09-23T03:50:46.176Z,7.70
2022-09-23T03:53:33.912Z,7.70
2022-09-23T03:56:21.741Z,7.70
2022-09-23T03:59:09.634Z,7.70
2022-09-23T04:01:59.597Z,7.70
2022-09-23T04:04:47.689Z,7.70
2022-09-23T04:07:37.029Z,7.70
2022-09-23T04:10:24.841Z,7.70
2022-09-23T04:13:12.651Z,7.80
2022-09-23T04:16:00.489Z,7.70
2022-09-23T04:18:48.323Z,7.70
2022-09-23T04:21:36.207Z,7.70
2022-09-23T04:24:25.342Z,7.50
2022-09-23T04:27:13.537Z,7.70
2022-09-23T04:30:01.368Z,7.80
2022-09-23T04:32:49.285Z,7.80
2022-09-23T04:35:40.340Z,7.90
2022-09-23T04:38:28.618Z,8.20
2022-09-23T04:41:18.617Z,8.40
2022-09-23T04:44:06.577Z,8.40
2022-09-23T04:46:54.525Z,8.40
2022-09-23T04:49:42.416Z,8.20
2022-09-23T04:52:31.206Z,8.00
2022-09-23T04:55:19.294Z,7.90
2022-09-23T04:58:09.895Z,7.80
2022-09-23T05:01:02.995Z,7.70
2022-09-23T05:03:56.819Z,7.80
2022-09-23T05:06:45.150Z,7.80
2022-09-23T05:09:33.250Z,7.80
2022-09-23T05:12:21.084Z,7.80
2022-09-23T05:15:10.562Z,7.80
2022-09-23T05:17:58.723Z,7.80
2022-09-23T05:20:46.528Z,7.80
2022-09-23T05:23:34.336Z,7.80
2022-09-23T05:26:23.261Z,7.60
2022-09-23T05:29:11.285Z,7.60
2022-09-23T05:32:01.592Z,7.60
2022-09-23T05:34:49.441Z,7.70
2022-09-23T05:37:39.009Z,7.80
2022-09-23T05:40:26.953Z,7.90
2022-09-23T05:43:14.939Z,7.90
2022-09-23T05:46:07.801Z,7.90
2022-09-23T05:49:02.099Z,7.90
2022-09-23T05:51:50.706Z,7.90
2022-09-23T05:54:38.633Z,8.00
2022-09-23T05:57:26.527Z,8.00
2022-09-23T06:00:15.502Z,8.00
2022-09-23T06:03:04.055Z,8.00
2022-09-23T06:05:54.787Z,8.00
2022-09-23T06:08:42.771Z,8.10
2022-09-23T06:11:31.092Z,8.10
2022-09-23T06:14:19.058Z,8.20
2022-09-23T06:17:06.914Z,8.20
2022-09-23T06:19:54.777Z,8.30
2022-09-23T06:22:43.879Z,8.50
2022-09-23T06:25:32.102Z,8.70
2022-09-23T06:28:20.012Z,8.90
2022-09-23T06:31:13.097Z,8.90
2022-09-23T06:34:12.449Z,8.80
2022-09-23T06:37:11.593Z,8.60
2022-09-23T06:40:04.292Z,8.60
2022-09-23T06:42:57.962Z,8.60
2022-09-23T06:45:45.802Z,8.60
2022-09-23T06:48:35.198Z,8.50
2022-09-23T06:51:23.166Z,8.50
2022-09-23T06:54:11.255Z,8.50
2022-09-23T06:57:00.538Z,8.60
2022-09-23T06:59:48.353Z,8.60
2022-09-23T07:02:36.417Z,8.60
2022-09-23T07:05:24.477Z,8.70
2022-09-23T07:08:12.294Z,8.80
2022-09-23T07:11:00.972Z,8.80
2022-09-23T07:13:50.106Z,8.80
2022-09-23T07:16:37.950Z,8.80
2022-09-23T07:19:26.257Z,8.90
2022-09-23T07:22:14.079Z,9.00
2022-09-23T07:25:01.890Z,8.90
2022-09-23T07:27:49.703Z,9.10
2022-09-23T07:30:43.340Z,9.10
2022-09-23T07:33:37.484Z,9.20
2022-09-23T07:36:27.939Z,9.40
2022-09-23T07:39:15.865Z,9.50
2022-09-23T07:42:05.237Z,9.60
2022-09-23T07:44:55.415Z,9.70
2022-09-23T07:47:44.600Z,9.80
2022-09-23T07:50:33.178Z,9.90
2022-09-23T07:53:20.965Z,10.00
2022-09-23T07:56:08.766Z,10.00
2022-09-23T07:59:03.879Z,10.10
2022-09-23T08:01:52.870Z,10.20
2022-09-23T08:04:42.113Z,10.30
2022-09-23T08:07:29.898Z,10.50
2022-09-23T08:10:19.086Z,10.60
2022-09-23T08:13:06.932Z,10.80
2022-09-23T08:15:55.644Z,11.00
2022-09-23T08:18:44.654Z,11.10
2022-09-23T08:21:34.103Z,11.30
2022-09-23T08:24:24.095Z,11.60
2022-09-23T08:27:12.698Z,11.60
2022-09-23T08:30:00.534Z,11.70
2022-09-23T08:32:50.838Z,11.80
2022-09-23T08:35:39.033Z,11.90
2022-09-23T08:38:28.319Z,12.10
2022-09-23T08:41:21.070Z,12.20
2022-09-23T08:44:13.100Z,12.30
2022-09-23T08:47:06.773Z,12.30
2022-09-23T08:49:58.232Z,12.40
2022-09-23T08:52:49.452Z,12.50
2022-09-23T08:55:41.531Z,12.60
2022-09-23T08:58:35.132Z,12.60
2022-09-23T09:01:26.015Z,12.70
2022-09-23T09:04:19.342Z,12.80
2022-09-23T09:10:23.413Z,12.90
2022-09-23T09:13:21.238Z,13.00
2022-09-23T09:16:27.278Z,13.10
2022-09-23T09:19:32.352Z,13.20
2022-09-23T09:22:21.818Z,13.30
2022-09-23T09:25:16.499Z,13.50
2022-09-23T09:28:05.083Z,13.50
2022-09-23T09:30:57.030Z,13.70
2022-09-23T09:33:47.009Z,13.80
2022-09-23T09:36:38.712Z,13.90
2022-09-23T09:39:28.171Z,14.00
2022-09-23T09:42:18.485Z,14.10
2022-09-23T09:45:12.749Z,14.20
2022-09-23T09:48:07.133Z,14.30
2022-09-23T09:50:56.034Z,14.30
2022-09-23T09:53:43.873Z,14.50
2022-09-23T09:56:33.178Z,14.60
2022-09-23T09:59:25.212Z,14.70
2022-09-23T10:02:13.883Z,14.90
2022-09-23T10:05:03.624Z,15.00
2022-09-23T10:07:51.499Z,15.20
2022-09-23T10:10:41.638Z,15.30
2022-09-23T10:13:30.155Z,15.40
2022-09-23T10:16:18.644Z,15.50
2022-09-23T10:19:13.951Z,15.50
2022-09-23T10:22:04.811Z,15.60
2022-09-23T10:24:54.265Z,15.70
2022-09-23T10:27:42.133Z,15.80
2022-09-23T10:30:29.954Z,15.90
2022-09-23T10:33:27.851Z,16.00
2022-09-23T10:36:16.578Z,16.10
2022-09-23T10:39:22.863Z,16.20
2022-09-23T10:42:30.897Z,16.30
2022-09-23T10:45:38.640Z,16.40
2022-09-23T10:48:34.075Z,16.50
2022-09-23T10:51:26.724Z,16.60
2022-09-23T10:54:20.408Z,16.70
2022-09-23T10:57:31.970Z,16.70
2022-09-23T11:00:24.109Z,16.80
2022-09-23T11:03:31.619Z,16.90
2022-09-23T11:06:23.065Z,17.00
2022-09-23T11:09:23.290Z,17.10
2022-09-23T11:12:18.271Z,17.10
2022-09-23T11:15:18.861Z,17.20
2022-09-23T11:18:26.722Z,17.20
2022-09-23T11:21:28.912Z,17.30
2022-09-23T11:24:35.405Z,17.40
2022-09-23T11:27:31.850Z,17.60
2022-09-23T11:30:20.649Z,17.70
2022-09-23T11:33:14.818Z,17.80
2022-09-23T11:36:04.976Z,17.90
2022-09-23T11:38:53.466Z,18.00
2022-09-23T11:41:43.768Z,18.10
2022-09-23T11:44:33.532Z,18.10
2022-09-23T11:47:23.360Z,18.10
2022-09-23T11:50:16.001Z,18.20
2022-09-23T11:53:07.050Z,18.20
2022-09-23T11:55:58.640Z,18.20
2022-09-23T11:58:53.509Z,18.20
2022-09-23T12:01:47.499Z,18.30
2022-09-23T12:04:43.329Z,18.30
2022-09-23T12:07:43.471Z,18.20
2022-09-23T12:10:37.334Z,18.20
2022-09-23T12:13:27.636Z,18.20
2022-09-23T12:16:30.696Z,18.20
2022-09-23T12:19:23.600Z,18.20
2022-09-23T12:22:19.938Z,18.20
2022-09-23T12:25:22.330Z,18.30
2022-09-23T12:28:13.104Z,18.40
2022-09-23T12:31:02.125Z,18.40
2022-09-23T12:33:52.178Z,18.40
2022-09-23T12:36:40.255Z,18.50
2022-09-23T12:39:30.956Z,18.50
2022-09-23T12:42:20.240Z,18.50
2022-09-23T12:45:20.289Z,18.60
2022-09-23T12:48:23.016Z,18.70
2022-09-23T12:51:19.422Z,18.80
2022-09-23T12:54:23.246Z,19.00
2022-09-23T12:57:11.256Z,19.10
2022-09-23T13:00:00.029Z,19.30
2022-09-23T13:03:08.056Z,19.40
2022-09-23T13:06:22.356Z,19.50
2022-09-23T13:09:15.699Z,19.60
2022-09-23T13:12:04.585Z,19.80
2022-09-23T13:14:54.434Z,19.80
2022-09-23T13:17:42.295Z,20.00
2022-09-23T13:20:36.904Z,19.90
2022-09-23T13:23:26.204Z,19.90
2022-09-23T13:26:15.884Z,19.90
2022-09-23T13:29:04.767Z,20.00
2022-09-23T13:31:52.688Z,20.00
2022-09-23T13:34:41.298Z,20.10
2022-09-23T13:37:44.528Z,20.00
2022-09-23T13:40:32.444Z,20.00
2022-09-23T13:43:24.773Z,20.10
2022-09-23T13:46:14.540Z,20.00
2022-09-23T13:49:02.812Z,20.00
2022-09-23T13:51:51.090Z,19.90
2022-09-23T13:54:47.310Z,19.90
2022-09-23T13:57:36.152Z,19.80
2022-09-23T14:00:26.337Z,19.90
2022-09-23T14:03:18.179Z,19.90
2022-09-23T14:06:09.356Z,19.80
2022-09-23T14:08:58.010Z,19.80
2022-09-23T14:11:45.915Z,19.80
2022-09-23T14:14:35.853Z,19.80
2022-09-23T14:17:25.132Z,19.70
2022-09-23T14:20:14.832Z,19.60
2022-09-23T14:23:06.597Z,19.50
2022-09-23T14:25:55.009Z,19.40
2022-09-23T14:28:42.955Z,19.40
2022-09-23T14:31:32.898Z,19.30
2022-09-23T14:34:42.074Z,19.30
2022-09-23T14:37:48.597Z,19.20
2022-09-23T14:40:38.008Z,19.20
2022-09-23T14:43:27.106Z,19.20
2022-09-23T14:46:17.336Z,19.20
2022-09-23T14:49:06.756Z,19.20
2022-09-23T14:51:57.815Z,19.10
2022-09-23T14:54:45.918Z,19.20
2022-09-23T14:57:33.749Z,19.10
2022-09-23T15:00:21.717Z,19.10
2022-09-23T15:03:14.673Z,19.00
2022-09-23T15:06:08.460Z,19.00
2022-09-23T15:08:57.961Z,19.00
2022-09-23T15:11:48.191Z,18.90
2022-09-23T15:14:39.228Z,18.90
2022-09-23T15:17:33.371Z,18.90
2022-09-23T15:20:23.267Z,18.70
2022-09-23T15:23:32.352Z,18.70
2022-09-23T15:26:22.253Z,18.60
2022-09-23T15:29:10.646Z,18.50
2022-09-23T15:31:59.426Z,18.50
2022-09-23T15:34:49.481Z,18.40
2022-09-23T15:37:37.269Z,18.40
2022-09-23T15:40:26.174Z,18.30
2022-09-23T15:43:21.057Z,18.20
2022-09-23T15:46:13.294Z,18.20
2022-09-23T15:49:02.890Z,18.10
2022-09-23T15:51:52.007Z,18.00
2022-09-23T15:54:39.861Z,18.00
2022-09-23T15:57:27.739Z,17.90
2022-09-23T16:00:17.308Z,17.80
2022-09-23T16:03:06.627Z,17.80
2022-09-23T16:05:56.189Z,17.70
2022-09-23T16:08:43.994Z,17.80
2022-09-23T16:11:32.779Z,17.70
2022-09-23T16:14:20.565Z,17.70
2022-09-23T16:17:13.179Z,17.60
2022-09-23T16:20:01.019Z,17.50
2022-09-23T16:22:55.105Z,17.50
2022-09-23T16:25:43.067Z,17.40
2022-09-23T16:28:30.892Z,17.30
2022-09-23T16:31:19.094Z,17.30
2022-09-23T16:34:08.557Z,17.20
2022-09-23T16:36:56.522Z,17.10
2022-09-23T16:39:44.385Z,17.10
2022-09-23T16:42:32.296Z,17.10
2022-09-23T16:45:22.909Z,17.10
2022-09-23T16:48:11.530Z,17.00
2022-09-23T16:51:04.799Z,16.90
2022-09-23T16:53:53.336Z,16.90
2022-09-23T16:56:44.309Z,16.80
2022-09-23T16:59:52.625Z,16.70
2022-09-23T17:02:58.541Z,16.70
2022-09-23T17:05:47.030Z,16.70
2022-09-23T17:08:40.663Z,16.60
2022-09-23T17:11:33.419Z,16.60
2022-09-23T17:14:21.902Z,16.50
2022-09-23T17:17:12.813Z,16.50
2022-09-23T17:20:00.594Z,16.50
2022-09-23T17:22:48.503Z,16.40
2022-09-23T17:25:37.711Z,16.40
2022-09-23T17:28:25.553Z,16.30
2022-09-23T17:31:13.509Z,16.20
2022-09-23T17:34:01.612Z,16.10
2022-09-23T17:36:49.877Z,16.10
2022-09-23T17:39:38.111Z,16.10
2022-09-23T17:42:27.690Z,16.00
2022-09-23T17:45:17.361Z,16.00
2022-09-23T17:48:05.215Z,15.90
2022-09-23T17:50:56.816Z,15.80
2022-09-23T17:53:45.544Z,15.90
2022-09-23T17:56:33.984Z,15.90
2022-09-23T17:59:23.151Z,15.80
2022-09-23T18:02:15.399Z,15.80
2022-09-23T18:05:03.544Z,15.80
2022-09-23T18:07:51.361Z,15.80
2022-09-23T18:10:39.118Z,15.80
2022-09-23T18:13:26.921Z,15.70
2022-09-23T18:16:16.157Z,15.60
2022-09-23T18:19:04.575Z,15.60
2022-09-23T18:21:54.488Z,15.60
2022-09-23T18:24:42.902Z,15.50
2022-09-23T18:27:31.462Z,15.50
2022-09-23T18:30:19.270Z,15.50
2022-09-23T18:33:08.404Z,15.40
2022-09-23T18:35:56.377Z,15.40
2022-09-23T18:38:44.156Z,15.40
2022-09-23T18:41:32.458Z,15.40
2022-09-23T18:44:20.244Z,15.40
2022-09-23T18:47:08.101Z,15.30
2022-09-23T18:50:14.901Z,15.30
2022-09-23T18:53:02.784Z,15.30
2022-09-23T18:55:53.293Z,15.20
2022-09-23T18:58:45.652Z,15.20
2022-09-23T19:01:33.704Z,15.20
2022-09-23T19:04:22.138Z,15.10
2022-09-23T19:07:11.888Z,15.10
2022-09-23T19:09:59.719Z,15.00
2022-09-23T19:12:47.711Z,15.00
2022-09-23T19:15:35.542Z,14.90
2022-09-23T19:18:23.382Z,14.90
2022-09-23T19:21:12.752Z,14.80
2022-09-23T19:24:03.993Z,14.80
2022-09-23T19:26:55.610Z,14.80
2022-09-23T19:29:43.389Z,14.70
2022-09-23T19:32:33.398Z,14.70
2022-09-23T19:35:21.277Z,14.70
2022-09-23T19:38:09.751Z,14.70
2022-09-23T19:41:03.546Z,14.60
2022-09-23T19:43:53.187Z,14.60
2022-09-23T19:46:42.841Z,14.70
2022-09-23T19:49:31.054Z,14.70
2022-09-23T19:52:18.911Z,14.60
2022-09-23T19:55:07.443Z,14.60
2022-09-23T19:57:56.732Z,14.60
2022-09-23T20:00:44.602Z,14.60
2022-09-23T20:03:33.528Z,14.60
2022-09-23T20:06:21.787Z,14.60
2022-09-23T20:09:09.969Z,14.60
2022-09-23T20:12:01.113Z,14.60
2022-09-23T20:14:51.604Z,14.50
2022-09-23T20:17:40.144Z,14.50
2022-09-23T20:20:27.978Z,14.50
2022-09-23T20:23:15.814Z,14.50
2022-09-23T20:26:22.920Z,14.50
2022-09-23T20:29:11.431Z,14.50
2022-09-23T20:32:00.956Z,14.50
2022-09-23T20:34:48.729Z,14.40
2022-09-23T20:37:37.382Z,14.40
2022-09-23T20:40:25.288Z,14.40
2022-09-23T20:43:16.099Z,14.40
2022-09-23T20:46:05.456Z,14.30
2022-09-23T20:48:56.678Z,14.30
2022-09-23T20:51:44.536Z,14.30
2022-09-23T20:54:32.374Z,14.30
2022-09-23T20:57:21.326Z,14.30
2022-09-23T21:00:09.792Z,14.30
2022-09-23T21:02:57.635Z,14.30
2022-09-23T21:05:47.747Z,14.20
2022-09-23T21:08:36.713Z,14.20
2022-09-23T21:11:26.352Z,14.20
2022-09-23T21:14:14.510Z,14.00
2022-09-23T21:17:02.327Z,14.00
2022-09-23T21:19:50.143Z,13.90
2022-09-23T21:22:39.293Z,13.90
2022-09-23T21:25:29.042Z,13.90
2022-09-23T21:28:17.625Z,13.80
2022-09-23T21:31:06.514Z,13.80
2022-09-23T21:33:54.680Z,13.70
2022-09-23T21:36:44.126Z,13.60
2022-09-23T21:39:33.416Z,13.60
2022-09-23T21:42:21.324Z,13.50
2022-09-23T21:45:09.797Z,13.40
2022-09-23T21:47:57.605Z,13.30
2022-09-23T21:50:45.429Z,13.30
2022-09-23T21:53:36.343Z,13.30
2022-09-23T21:56:26.380Z,13.20
2022-09-23T21:59:14.253Z,13.20
2022-09-23T22:02:02.058Z,13.10
2022-09-23T22:04:50.000Z,13.10
2022-09-23T22:07:38.222Z,13.10
2022-09-23T22:10:26.337Z,13.00
2022-09-23T22:13:17.057Z,13.00
2022-09-23T22:16:06.111Z,12.90
2022-09-23T22:18:55.467Z,13.00
2022-09-23T22:21:44.960Z,13.00
2022-09-23T22:24:32.918Z,13.00
2022-09-23T22:27:20.827Z,12.90
2022-09-23T22:30:28.659Z,12.90
2022-09-23T22:33:16.754Z,12.80
2022-09-23T22:36:04.969Z,12.70
2022-09-23T22:38:58.995Z,12.70
2022-09-23T22:41:47.980Z,12.70
2022-09-23T22:44:35.963Z,12.70
2022-09-23T22:47:25.785Z,12.60
2022-09-23T22:50:14.942Z,12.60
2022-09-23T22:53:04.167Z,12.60
2022-09-23T22:55:59.218Z,12.50
2022-09-23T22:58:47.798Z,12.40
2022-09-23T23:01:35.908Z,12.40
2022-09-23T23:04:25.266Z,12.40
2022-09-23T23:07:14.376Z,12.40
2022-09-23T23:10:03.046Z,12.50
2022-09-23T23:12:52.446Z,12.60
2022-09-23T23:15:40.457Z,12.60
2022-09-23T23:18:31.610Z,12.60
2022-09-23T23:21:21.765Z,12.50
2022-09-23T23:24:14.630Z,12.40
2022-09-23T23:27:02.924Z,12.30
2022-09-23T23:29:50.690Z,12.30
2022-09-23T23:32:38.495Z,12.30
2022-09-23T23:35:26.311Z,12.20
2022-09-23T23:38:15.528Z,12.10
2022-09-23T23:41:03.585Z,12.20
2022-09-23T23:43:55.048Z,12.20
2022-09-23T23:46:42.931Z,12.20
2022-09-23T23:49:30.782Z,12.20
2022-09-23T23:52:18.640Z,12.20
2022-09-23T23:55:08.270Z,12.20
2022-09-23T23:57:56.093Z,12.10
